Pagrindinis puslapis
METAR-TAF:

METAR-TAF

Oro uostai :

Ranongas, Tailandas

platuma: 09-59N, ilguma: 098-37E, Aukštis: 7 m

Dabartinis oras

Ataskaita buvo paskelbta 2 valandos ir 33 minutes, ne 18:00 UTC
Ramus vėjas
Temperatūra 24°C
Drėgmė 100%
Slėgis 1011 hPa
Matomumas 10 km arba daugiau
Mažai debesys ne aukštis 2000 ft

METAR: VTSR 171800Z 00000KT 9999 FEW020 24/24 Q1011 NOSIG

Laikas: 03:33 (20:33 UTC)

Prognozė

Ataskaita buvo paskelbta 3 valandos ir 33 minutes, ne 17:00 UTC
Prognozė galioja nuo 17 metu 18 UTC su 18 metu 18 UTC
Vėjas kt iš Šiaurės
Matomumas 10 km arba daugiau
Išsisklaidę debesys ne aukštis 2000 ft
Tapsmas
nuo 18 metu 00 UTC su 18 metu 02 UTC
Vėjas 6 kt iš Pietvakarių
Tapsmas
nuo 18 metu 10 UTC su 18 metu 12 UTC
Vėjas kt iš Šiaurės

TAF: VTSR 171700Z 1718/1818 00000KT 9999 SCT020 BECMG 1800/1802 22006KT BECMG 1810/1812 00000KT

Orai ataskaitas ir orų prognozės (METAR, TAF).

turimą stotys yra geltonos ir raudonos taškus žemėlapyje.

Perkelti pele per norėdami pamatyti stoties vardą.

Tada spustelėkite, norėdami matyti oro stebėjimo ir prognozės.

Norėdami pakeisti žemėlapį: spustelėkite ant žalios mygtukų su juodo kryžiaus žemyn,; žalią mygtuką su brūkšneliu, jei norite nutolinti; arba žalių rodyklių gretimoms žemėlapius.


METAR-TAF: